Time;durP1;ratioP1;P1;durP2;ratioP2;P2;SDS_P1;SDS_P2;PMS_P1;PMS_P2;Temp;Humidity;BMP_temperature;BMP_pressure;BME280_temperature;BME280_humidity;BME280_pressure;Samples;Min_cycle;Max_cycle;Signal;HPM_P1;HPM_P2
2022/11/06 00:00:33;;;;;;;;;;;5.30;99.90;;;;;;5079076;28;19909;-92
2022/11/06 00:03:00;;;;;;;;;;;5.30;99.90;;;;;;5079042;28;19948;-91
2022/11/06 00:08:12;;;;;;;;;;;5.80;99.90;;;;;;5079087;28;19912;-92
2022/11/06 00:10:38;;;;;;;;;;;5.20;99.90;;;;;;5078768;28;19913;-93
2022/11/06 00:13:05;;;;;;;;;;;5.10;99.90;;;;;;5078941;28;19916;-92
2022/11/06 00:15:33;;;;;;;;;;;5.20;99.90;;;;;;5078516;28;19909;-91
2022/11/06 00:18:00;;;;;;;;;;;5.10;99.90;;;;;;5080351;28;19924;-92
2022/11/06 00:20:27;;;;;;;;;;;5.10;99.90;;;;;;5082593;28;19968;-91
2022/11/06 00:22:53;;;;;;;;;;;5.00;99.90;;;;;;5082852;28;19913;-92
2022/11/06 00:25:20;;;;;;;;;;;5.00;99.90;;;;;;5082298;28;19924;-92
2022/11/06 00:27:47;;;;;;;;;;;5.00;99.90;;;;;;5082794;28;19936;-91
2022/11/06 00:30:14;;;;;;;;;;;4.90;99.90;;;;;;5082679;28;19943;-93
2022/11/06 00:32:42;;;;;;;;;;;4.90;99.90;;;;;;5082699;28;19917;-91
2022/11/06 00:35:09;;;;;;;;;;;4.90;99.90;;;;;;5082085;28;19912;-92
2022/11/06 00:37:35;;;;;;;;;;;4.90;99.90;;;;;;5082364;28;19939;-92
2022/11/06 00:40:02;;;;;;;;;;;5.10;99.90;;;;;;5082503;28;19908;-92
2022/11/06 00:42:29;;;;;;;;;;;4.90;99.90;;;;;;5082562;28;19919;-92
2022/11/06 00:44:56;;;;;;;;;;;4.80;99.90;;;;;;5082108;28;19920;-92
2022/11/06 00:47:23;;;;;;;;;;;4.80;99.90;;;;;;5082287;28;19909;-92
2022/11/06 00:49:51;;;;;;;;;;;4.80;99.90;;;;;;5082140;28;19940;-91
2022/11/06 00:52:18;;;;;;;;;;;4.80;99.90;;;;;;5082213;28;19924;-92
2022/11/06 00:54:44;;;;;;;;;;;4.80;99.90;;;;;;5082014;28;19917;-91
2022/11/06 00:57:11;;;;;;;;;;;4.80;99.90;;;;;;5082206;28;19917;-91
2022/11/06 00:59:38;;;;;;;;;;;4.80;99.90;;;;;;5082283;28;19920;-91
2022/11/06 01:02:04;;;;;;;;;;;4.80;99.90;;;;;;5082073;28;19939;-91
2022/11/06 01:04:31;;;;;;;;;;;5.10;99.90;;;;;;5081477;28;19917;-91
2022/11/06 01:06:59;;;;;;;;;;;4.70;99.90;;;;;;5081846;28;19954;-91
2022/11/06 01:09:27;;;;;;;;;;;4.80;99.90;;;;;;5082011;28;19940;-91
2022/11/06 01:11:55;;;;;;;;;;;4.80;99.90;;;;;;5081932;28;19913;-91
2022/11/06 01:14:22;;;;;;;;;;;4.70;99.90;;;;;;5081990;28;20210;-91
2022/11/06 01:16:49;;;;;;;;;;;4.80;99.90;;;;;;5081544;28;19909;-92
2022/11/06 01:19:17;;;;;;;;;;;4.70;99.90;;;;;;5081473;28;19908;-91
2022/11/06 01:21:44;;;;;;;;;;;5.10;99.90;;;;;;5081813;28;19909;-92
2022/11/06 01:24:13;;;;;;;;;;;4.70;99.90;;;;;;5081620;28;19985;-92
2022/11/06 01:26:40;;;;;;;;;;;4.90;99.90;;;;;;5081316;28;19909;-92
2022/11/06 01:29:08;;;;;;;;;;;5.00;99.90;;;;;;5080555;28;19943;-92
2022/11/06 01:31:35;;;;;;;;;;;4.60;99.90;;;;;;5081540;28;19932;-93
2022/11/06 01:34:02;;;;;;;;;;;4.90;99.90;;;;;;5081159;28;19928;-92
2022/11/06 01:36:29;;;;;;;;;;;4.80;99.90;;;;;;5081018;28;19917;-92
2022/11/06 01:38:58;;;;;;;;;;;4.80;99.90;;;;;;5081303;28;19932;-92
2022/11/06 01:41:27;;;;;;;;;;;4.70;99.90;;;;;;5081409;28;19923;-92
2022/11/06 01:43:55;;;;;;;;;;;4.70;99.90;;;;;;5078497;28;19909;-90
2022/11/06 01:46:23;;;;;;;;;;;4.70;99.90;;;;;;5070103;28;19920;-91
2022/11/06 01:48:52;;;;;;;;;;;4.80;99.90;;;;;;5068594;28;19989;-89
2022/11/06 01:51:20;;;;;;;;;;;4.90;99.90;;;;;;5072779;28;19920;-90
2022/11/06 01:53:47;;;;;;;;;;;4.70;99.90;;;;;;5070971;28;19933;-91
2022/11/06 01:56:14;;;;;;;;;;;4.70;99.90;;;;;;5079055;28;19921;-89
2022/11/06 01:58:43;;;;;;;;;;;5.20;99.90;;;;;;5078997;28;19909;-92
2022/11/06 02:01:10;;;;;;;;;;;4.70;99.90;;;;;;5078694;28;19920;-93
2022/11/06 02:03:37;;;;;;;;;;;4.80;99.90;;;;;;5075835;28;19908;-92
2022/11/06 02:06:04;;;;;;;;;;;4.70;99.90;;;;;;5077364;28;19933;-91
2022/11/06 02:08:31;;;;;;;;;;;4.70;99.90;;;;;;5073086;28;19909;-91
2022/11/06 02:10:58;;;;;;;;;;;4.80;99.90;;;;;;5074485;28;19932;-90
2022/11/06 02:13:30;;;;;;;;;;;4.70;99.90;;;;;;5075254;28;19976;-92
2022/11/06 02:16:03;;;;;;;;;;;4.70;99.90;;;;;;5074704;28;19944;-92
2022/11/06 02:18:39;;;;;;;;;;;4.60;99.90;;;;;;5078244;28;19944;-91
2022/11/06 02:21:24;;;;;;;;;;;4.60;99.90;;;;;;5076914;28;19948;-91
2022/11/06 02:23:57;;;;;;;;;;;4.60;99.90;;;;;;5068235;28;19920;-91
2022/11/06 02:26:32;;;;;;;;;;;4.60;99.90;;;;;;5075434;28;19927;-91
2022/11/06 02:29:04;;;;;;;;;;;4.50;99.90;;;;;;5076187;28;19920;-92
2022/11/06 02:31:33;;;;;;;;;;;4.60;99.90;;;;;;5076252;28;19917;-91
2022/11/06 02:34:02;;;;;;;;;;;4.60;99.90;;;;;;5076432;28;19921;-92
2022/11/06 02:36:31;;;;;;;;;;;4.50;99.90;;;;;;5076482;28;19913;-92
2022/11/06 02:39:01;;;;;;;;;;;4.50;99.90;;;;;;5077397;28;19936;-92
2022/11/06 02:41:31;;;;;;;;;;;4.50;99.90;;;;;;5077046;28;19927;-92
2022/11/06 02:43:58;;;;;;;;;;;4.50;99.90;;;;;;5076347;28;19921;-91
2022/11/06 02:46:27;;;;;;;;;;;4.40;99.90;;;;;;5076766;28;19931;-92
2022/11/06 02:48:56;;;;;;;;;;;4.50;99.90;;;;;;5076549;28;19920;-91
2022/11/06 02:51:25;;;;;;;;;;;4.50;99.90;;;;;;5078231;28;19913;-92
2022/11/06 02:53:53;;;;;;;;;;;4.40;99.90;;;;;;5078471;28;19932;-92
2022/11/06 02:56:20;;;;;;;;;;;4.40;99.90;;;;;;5077851;28;19912;-94
2022/11/06 02:58:49;;;;;;;;;;;4.40;99.90;;;;;;5077379;28;19976;-93
2022/11/06 03:01:20;;;;;;;;;;;4.40;99.90;;;;;;5077899;28;19928;-93
2022/11/06 03:03:51;;;;;;;;;;;4.40;99.90;;;;;;5077367;28;19985;-91
2022/11/06 03:06:20;;;;;;;;;;;4.40;99.90;;;;;;5077613;28;19925;-91
2022/11/06 03:08:48;;;;;;;;;;;4.30;99.90;;;;;;5077695;28;19959;-94
2022/11/06 03:11:17;;;;;;;;;;;4.50;99.90;;;;;;5076768;28;19921;-92
2022/11/06 03:13:46;;;;;;;;;;;4.40;99.90;;;;;;5075899;28;19913;-92
2022/11/06 03:16:21;;;;;;;;;;;4.30;99.90;;;;;;5075836;28;19921;-92
2022/11/06 03:18:54;;;;;;;;;;;4.20;99.90;;;;;;5076314;28;19940;-92
2022/11/06 03:21:23;;;;;;;;;;;4.20;99.90;;;;;;5075971;28;19927;-91
2022/11/06 03:23:53;;;;;;;;;;;4.20;99.90;;;;;;5075740;28;19932;-92
2022/11/06 03:26:22;;;;;;;;;;;4.20;99.90;;;;;;5075173;28;19921;-91
2022/11/06 03:28:51;;;;;;;;;;;4.10;99.90;;;;;;5074836;28;19921;-91
2022/11/06 03:31:19;;;;;;;;;;;4.10;99.90;;;;;;5075472;28;19977;-92
2022/11/06 03:33:49;;;;;;;;;;;4.10;99.90;;;;;;5075754;28;19948;-92
2022/11/06 03:36:18;;;;;;;;;;;4.00;99.90;;;;;;5075135;28;19919;-92
2022/11/06 03:38:46;;;;;;;;;;;4.00;99.90;;;;;;5076308;28;19928;-92
2022/11/06 03:41:16;;;;;;;;;;;4.00;99.90;;;;;;5076403;28;19921;-92
2022/11/06 03:43:44;;;;;;;;;;;5.00;99.90;;;;;;5076536;28;19921;-91
2022/11/06 03:46:13;;;;;;;;;;;3.90;99.90;;;;;;5075156;28;19920;-92
2022/11/06 03:48:41;;;;;;;;;;;3.90;99.90;;;;;;5076524;28;19944;-92
2022/11/06 03:51:10;;;;;;;;;;;3.90;99.90;;;;;;5076496;28;19912;-92
2022/11/06 03:53:41;;;;;;;;;;;3.70;99.90;;;;;;5075713;28;19931;-93
2022/11/06 03:56:13;;;;;;;;;;;3.80;99.90;;;;;;5075832;28;19968;-92
2022/11/06 03:58:42;;;;;;;;;;;3.70;99.90;;;;;;5076624;28;19943;-92
2022/11/06 04:01:10;;;;;;;;;;;3.70;99.90;;;;;;5076156;28;19928;-92
2022/11/06 04:03:40;;;;;;;;;;;3.70;99.90;;;;;;5075765;28;19912;-92
2022/11/06 04:06:10;;;;;;;;;;;3.80;99.90;;;;;;5075600;28;19928;-91
2022/11/06 04:14:11;;;;;;;;;;;3.70;99.90;;;;;;5076026;28;19969;-92
2022/11/06 04:16:39;;;;;;;;;;;3.70;99.90;;;;;;5076268;28;19920;-92
2022/11/06 04:19:06;;;;;;;;;;;3.60;99.90;;;;;;5077688;28;19947;-91
2022/11/06 04:21:42;;;;;;;;;;;3.60;99.90;;;;;;5077084;28;19924;-91
2022/11/06 04:30:06;;;;;;;;;;;3.50;99.90;;;;;;5075997;28;19920;-92
2022/11/06 04:32:36;;;;;;;;;;;3.40;99.90;;;;;;5075820;28;20207;-93
2022/11/06 04:35:05;;;;;;;;;;;3.40;99.90;;;;;;5074641;28;19927;-92
2022/11/06 04:37:36;;;;;;;;;;;3.40;99.90;;;;;;5074647;28;19941;-92
2022/11/06 04:40:08;;;;;;;;;;;3.30;99.90;;;;;;5073963;28;19948;-92
2022/11/06 04:42:38;;;;;;;;;;;3.30;99.90;;;;;;5054596;28;19937;-92
2022/11/06 04:45:07;;;;;;;;;;;3.30;99.90;;;;;;5054942;28;19964;-93
2022/11/06 04:47:34;;;;;;;;;;;3.40;99.90;;;;;;5055249;28;19952;-93
2022/11/06 04:50:02;;;;;;;;;;;3.40;99.90;;;;;;5060171;28;19944;-92
2022/11/06 04:52:33;;;;;;;;;;;3.30;99.90;;;;;;5073109;28;19921;-92
2022/11/06 04:55:00;;;;;;;;;;;3.30;99.90;;;;;;5072670;28;19921;-93
2022/11/06 05:10:03;;;;;;;;;;;3.00;99.90;;;;;;5087141;28;19956;-91
2022/11/06 05:18:46;;;;;;;;;;;3.10;99.90;;;;;;5075541;28;19915;-92
2022/11/06 06:00:14;;;;;;;;;;;2.60;99.90;;;;;;5043911;28;19921;-68
2022/11/06 06:02:41;;;;;;;;;;;2.60;99.90;;;;;;5045619;28;19988;-68
2022/11/06 06:05:08;;;;;;;;;;;2.60;99.90;;;;;;5046116;28;19968;-67
2022/11/06 06:07:35;;;;;;;;;;;2.50;99.90;;;;;;5056776;28;19991;-68
2022/11/06 06:10:01;;;;;;;;;;;2.50;99.90;;;;;;5064854;28;19921;-67
2022/11/06 06:12:28;;;;;;;;;;;2.40;99.90;;;;;;5065323;28;19951;-67
2022/11/06 06:14:55;;;;;;;;;;;2.40;99.90;;;;;;5064184;28;19988;-68
2022/11/06 06:17:23;;;;;;;;;;;2.40;99.90;;;;;;5065031;28;19967;-68
2022/11/06 06:19:50;;;;;;;;;;;2.40;99.90;;;;;;5059252;28;19987;-67
2022/11/06 06:22:16;;;;;;;;;;;2.40;99.90;;;;;;5056845;28;19921;-67
2022/11/06 06:24:43;;;;;;;;;;;2.30;99.90;;;;;;5064069;28;19921;-68
2022/11/06 06:27:09;;;;;;;;;;;2.30;99.90;;;;;;5065133;28;19921;-67
2022/11/06 06:29:36;;;;;;;;;;;2.30;99.90;;;;;;5064419;28;19980;-68
2022/11/06 06:32:03;;;;;;;;;;;2.30;99.90;;;;;;5065008;28;19983;-67
2022/11/06 06:34:31;;;;;;;;;;;2.20;99.90;;;;;;5057917;28;19960;-70
2022/11/06 06:36:58;;;;;;;;;;;2.20;99.90;;;;;;5052697;28;19991;-68
2022/11/06 06:39:24;;;;;;;;;;;2.20;99.90;;;;;;5044840;28;19957;-68
2022/11/06 06:41:51;;;;;;;;;;;2.20;99.90;;;;;;5044838;28;19963;-67
2022/11/06 06:44:17;;;;;;;;;;;2.10;99.90;;;;;;5044896;28;19921;-67
2022/11/06 06:46:44;;;;;;;;;;;2.00;99.90;;;;;;5044014;28;19921;-68
2022/11/06 06:49:11;;;;;;;;;;;2.00;99.90;;;;;;5043385;28;19965;-67
2022/11/06 06:51:39;;;;;;;;;;;1.90;99.90;;;;;;5058239;28;19984;-68
2022/11/06 06:54:06;;;;;;;;;;;2.00;99.90;;;;;;5044655;28;19980;-68
2022/11/06 06:56:32;;;;;;;;;;;2.00;99.90;;;;;;5043904;28;19963;-68
2022/11/06 06:58:59;;;;;;;;;;;2.00;99.90;;;;;;5044127;28;19940;-67
2022/11/06 07:01:25;;;;;;;;;;;2.00;99.90;;;;;;5044298;28;20320;-68
2022/11/06 07:03:52;;;;;;;;;;;2.10;99.90;;;;;;5044388;28;19984;-68
2022/11/06 07:06:19;;;;;;;;;;;2.10;99.90;;;;;;5048466;28;19967;-67
2022/11/06 07:08:47;;;;;;;;;;;2.20;99.90;;;;;;5064151;28;19920;-68
2022/11/06 07:11:14;;;;;;;;;;;2.20;99.90;;;;;;5064299;28;19975;-68
2022/11/06 07:13:40;;;;;;;;;;;2.30;99.90;;;;;;5064240;28;19964;-67
2022/11/06 07:16:08;;;;;;;;;;;2.30;99.90;;;;;;5063181;28;19980;-67
2022/11/06 07:18:34;;;;;;;;;;;2.30;99.90;;;;;;5058386;28;19956;-68
2022/11/06 07:21:03;;;;;;;;;;;2.30;99.90;;;;;;5054864;28;19988;-68
2022/11/06 07:23:30;;;;;;;;;;;2.40;99.90;;;;;;5045997;28;19954;-68
2022/11/06 07:25:58;;;;;;;;;;;2.40;99.90;;;;;;5023626;28;19922;-68
2022/11/06 07:28:24;;;;;;;;;;;2.50;99.90;;;;;;5023165;28;20224;-68
2022/11/06 07:30:51;;;;;;;;;;;2.50;99.90;;;;;;5024290;28;19922;-67
2022/11/06 07:33:18;;;;;;;;;;;2.50;99.90;;;;;;5024259;28;19921;-67
2022/11/06 07:35:44;;;;;;;;;;;2.50;99.90;;;;;;5042517;28;20228;-67
2022/11/06 07:38:11;;;;;;;;;;;2.50;99.90;;;;;;5051320;28;19964;-67
2022/11/06 07:40:38;;;;;;;;;;;2.60;99.90;;;;;;5043470;28;19980;-67
2022/11/06 07:43:07;;;;;;;;;;;2.60;99.90;;;;;;5043745;28;19921;-67
2022/11/06 07:45:33;;;;;;;;;;;2.60;99.90;;;;;;5042680;28;19932;-68
2022/11/06 07:48:00;;;;;;;;;;;2.60;99.90;;;;;;5043156;28;19953;-67
2022/11/06 07:50:27;;;;;;;;;;;2.70;99.90;;;;;;5048138;28;20277;-68
2022/11/06 07:52:54;;;;;;;;;;;2.80;99.90;;;;;;5056050;28;20271;-69
2022/11/06 07:55:30;;;;;;;;;;;2.90;99.90;;;;;;5045264;28;19992;-68
2022/11/06 07:57:57;;;;;;;;;;;3.00;99.90;;;;;;5033106;28;20232;-66
2022/11/06 08:00:25;;;;;;;;;;;3.00;99.90;;;;;;5043804;28;19992;-66
2022/11/06 08:02:52;;;;;;;;;;;3.00;99.90;;;;;;5043898;28;19992;-67
2022/11/06 08:05:31;;;;;;;;;;;3.00;99.90;;;;;;5029173;28;19929;-65
2022/11/06 08:07:58;;;;;;;;;;;3.10;99.90;;;;;;5050651;28;19920;-65
2022/11/06 08:10:58;;;;;;;;;;;3.10;99.90;;;;;;5062757;28;19987;-66
2022/11/06 08:13:25;;;;;;;;;;;3.20;99.90;;;;;;5063368;28;20266;-66
2022/11/06 08:15:53;;;;;;;;;;;3.30;99.90;;;;;;5062577;28;19921;-65
2022/11/06 08:18:20;;;;;;;;;;;3.40;99.90;;;;;;5063416;28;19996;-65
2022/11/06 08:21:23;;;;;;;;;;;3.50;99.90;;;;;;5050778;28;19988;-66
2022/11/06 08:23:50;;;;;;;;;;;3.70;99.90;;;;;;5023689;28;19960;-67
2022/11/06 08:26:17;;;;;;;;;;;3.80;99.90;;;;;;5023133;28;20120;-66
2022/11/06 08:28:43;;;;;;;;;;;3.90;99.90;;;;;;5025307;28;19928;-65
2022/11/06 08:31:11;;;;;;;;;;;4.10;99.90;;;;;;5042990;28;20306;-65
2022/11/06 08:33:38;;;;;;;;;;;4.20;99.90;;;;;;5043271;28;19988;-65
2022/11/06 08:36:06;;;;;;;;;;;4.30;99.90;;;;;;5048377;28;19989;-65
2022/11/06 08:38:32;;;;;;;;;;;4.30;99.90;;;;;;5045673;28;19927;-66
2022/11/06 08:41:03;;;;;;;;;;;4.40;99.90;;;;;;5047412;28;19928;-66
2022/11/06 08:43:30;;;;;;;;;;;4.50;99.90;;;;;;5047113;28;20180;-66
2022/11/06 08:45:56;;;;;;;;;;;4.60;99.90;;;;;;5030594;28;19992;-68
2022/11/06 08:48:25;;;;;;;;;;;4.70;99.90;;;;;;5040854;28;19996;-68
2022/11/06 08:50:52;;;;;;;;;;;4.70;99.90;;;;;;5043687;28;19980;-68
2022/11/06 08:53:19;;;;;;;;;;;4.80;99.90;;;;;;5044720;28;19953;-74
2022/11/06 08:55:45;;;;;;;;;;;4.80;99.90;;;;;;5045804;28;19957;-69
2022/11/06 08:58:12;;;;;;;;;;;4.80;99.90;;;;;;5045565;28;19984;-68
2022/11/06 09:00:39;;;;;;;;;;;4.90;99.90;;;;;;5046130;28;19921;-69
2022/11/06 09:03:10;;;;;;;;;;;4.90;99.90;;;;;;5037843;28;19983;-69
2022/11/06 09:05:40;;;;;;;;;;;4.90;99.90;;;;;;5043470;28;19921;-68
2022/11/06 09:08:07;;;;;;;;;;;4.90;99.90;;;;;;5051386;28;19971;-68
2022/11/06 09:10:34;;;;;;;;;;;4.90;99.90;;;;;;5046042;28;19984;-69
2022/11/06 09:13:19;;;;;;;;;;;4.90;99.90;;;;;;5043486;28;19953;-69
2022/11/06 09:15:46;;;;;;;;;;;5.00;99.90;;;;;;5045440;28;19996;-69
2022/11/06 09:18:12;;;;;;;;;;;5.00;99.90;;;;;;5045028;28;19992;-69
2022/11/06 09:20:40;;;;;;;;;;;5.00;99.90;;;;;;5045284;28;19972;-68
2022/11/06 09:23:08;;;;;;;;;;;5.00;99.90;;;;;;5045802;28;19955;-68
2022/11/06 09:25:35;;;;;;;;;;;5.10;99.90;;;;;;5045538;28;19948;-69
2022/11/06 09:28:02;;;;;;;;;;;5.10;99.90;;;;;;5045977;28;19955;-69
2022/11/06 09:30:29;;;;;;;;;;;5.20;99.90;;;;;;5045899;28;19929;-69
2022/11/06 09:32:57;;;;;;;;;;;5.30;99.90;;;;;;5046090;28;19948;-68
2022/11/06 09:35:24;;;;;;;;;;;5.40;99.90;;;;;;5052459;28;19959;-69
2022/11/06 09:37:53;;;;;;;;;;;5.50;99.90;;;;;;5053843;28;19952;-69
2022/11/06 09:40:21;;;;;;;;;;;5.60;99.90;;;;;;5045068;28;19956;-68
2022/11/06 09:42:56;;;;;;;;;;;5.60;99.90;;;;;;5045804;28;19967;-68
2022/11/06 09:48:19;;;;;;;;;;;5.70;99.90;;;;;;5036512;28;19992;-69
2022/11/06 09:50:49;;;;;;;;;;;5.70;99.90;;;;;;5040483;28;19988;-69
2022/11/06 09:53:19;;;;;;;;;;;5.70;99.90;;;;;;5038479;28;20001;-69
2022/11/06 09:55:48;;;;;;;;;;;5.70;99.90;;;;;;5039727;28;19952;-68
2022/11/06 09:58:16;;;;;;;;;;;5.60;99.90;;;;;;5043665;28;19988;-69
2022/11/06 10:00:43;;;;;;;;;;;5.60;99.90;;;;;;5045331;28;19984;-68
2022/11/06 10:03:14;;;;;;;;;;;5.60;99.90;;;;;;5045774;28;20108;-68
2022/11/06 10:05:42;;;;;;;;;;;5.50;99.90;;;;;;5049340;28;19952;-71
2022/11/06 10:08:13;;;;;;;;;;;5.60;99.90;;;;;;5043713;28;19988;-69
2022/11/06 10:10:43;;;;;;;;;;;5.60;99.90;;;;;;5045051;28;20165;-69
2022/11/06 10:13:14;;;;;;;;;;;5.70;99.90;;;;;;5044791;28;19984;-69
2022/11/06 10:15:44;;;;;;;;;;;5.80;99.90;;;;;;5044300;28;19963;-68
2022/11/06 10:18:14;;;;;;;;;;;5.80;99.90;;;;;;5030240;28;19953;-68
2022/11/06 10:20:46;;;;;;;;;;;5.80;99.90;;;;;;5044099;28;20941;-68
2022/11/06 10:23:18;;;;;;;;;;;5.90;99.90;;;;;;5044634;28;19921;-67
2022/11/06 10:25:52;;;;;;;;;;;5.90;99.90;;;;;;5043959;28;19964;-67
2022/11/06 10:28:26;;;;;;;;;;;5.90;99.90;;;;;;5044923;28;20183;-67
2022/11/06 10:31:01;;;;;;;;;;;5.90;99.90;;;;;;5042958;28;19985;-67
2022/11/06 10:33:32;;;;;;;;;;;6.00;99.90;;;;;;5044616;28;20280;-67
2022/11/06 10:36:00;;;;;;;;;;;6.00;99.90;;;;;;5048773;28;19921;-68
2022/11/06 10:38:28;;;;;;;;;;;6.00;99.90;;;;;;5061796;28;20283;-68
2022/11/06 10:40:56;;;;;;;;;;;6.00;99.90;;;;;;5064907;28;19991;-68
2022/11/06 10:43:26;;;;;;;;;;;6.00;99.90;;;;;;5064869;28;19952;-68
2022/11/06 10:45:57;;;;;;;;;;;6.00;99.90;;;;;;5063752;28;19983;-68
2022/11/06 10:48:26;;;;;;;;;;;6.00;99.90;;;;;;5059989;28;19980;-68
2022/11/06 10:50:57;;;;;;;;;;;6.00;99.90;;;;;;5083058;23;20005;-69
2022/11/06 10:53:29;;;;;;;;;;;6.10;99.90;;;;;;5081268;28;19947;-67
2022/11/06 10:56:05;;;;;;;;;;;6.20;99.90;;;;;;5084010;28;19987;-68
2022/11/06 10:58:42;;;;;;;;;;;6.20;99.90;;;;;;5082958;28;19980;-67
2022/11/06 11:01:12;;;;;;;;;;;6.10;99.90;;;;;;5084711;28;19987;-68
2022/11/06 11:03:41;;;;;;;;;;;6.10;99.90;;;;;;5084514;28;19952;-68
2022/11/06 11:06:08;;;;;;;;;;;6.20;99.90;;;;;;5074434;28;19980;-68
2022/11/06 11:08:35;;;;;;;;;;;6.20;99.90;;;;;;5082508;28;19920;-68
2022/11/06 11:11:04;;;;;;;;;;;6.20;99.90;;;;;;5084046;28;20223;-68
2022/11/06 11:13:31;;;;;;;;;;;6.30;99.90;;;;;;5044017;28;19928;-68
2022/11/06 11:15:57;;;;;;;;;;;6.30;99.90;;;;;;5043767;28;20120;-67
2022/11/06 11:18:29;;;;;;;;;;;6.40;99.90;;;;;;5055784;28;19983;-68
2022/11/06 11:21:04;;;;;;;;;;;6.40;99.90;;;;;;5068591;28;19920;-68
2022/11/06 11:23:31;;;;;;;;;;;6.40;99.90;;;;;;5066099;28;19944;-68
2022/11/06 11:26:12;;;;;;;;;;;6.50;99.90;;;;;;5062949;28;19956;-68
2022/11/06 11:28:40;;;;;;;;;;;6.50;99.90;;;;;;5063910;28;19952;-68
2022/11/06 11:31:08;;;;;;;;;;;6.50;99.90;;;;;;5071582;28;19948;-68
2022/11/06 11:33:37;;;;;;;;;;;6.50;99.90;;;;;;5083246;28;20306;-67
2022/11/06 11:36:05;;;;;;;;;;;6.50;99.90;;;;;;5067575;28;19955;-69
2022/11/06 11:38:33;;;;;;;;;;;6.60;99.90;;;;;;5079538;28;20253;-68
2022/11/06 11:41:06;;;;;;;;;;;6.60;99.90;;;;;;5056987;28;19952;-68
2022/11/06 11:43:32;;;;;;;;;;;6.70;99.90;;;;;;5062597;28;20179;-67
2022/11/06 11:46:05;;;;;;;;;;;6.70;99.90;;;;;;5062573;28;20208;-67
2022/11/06 11:48:42;;;;;;;;;;;6.80;99.90;;;;;;5065096;28;19996;-68
2022/11/06 11:51:29;;;;;;;;;;;6.90;99.90;;;;;;5071409;28;19924;-67
2022/11/06 11:53:57;;;;;;;;;;;7.00;99.90;;;;;;5063402;28;19962;-68
2022/11/06 11:56:25;;;;;;;;;;;7.00;99.90;;;;;;5068489;28;19920;-68
2022/11/06 11:58:53;;;;;;;;;;;7.00;99.90;;;;;;5076171;28;19952;-68
2022/11/06 12:01:33;;;;;;;;;;;7.10;99.90;;;;;;5063327;28;20255;-68
2022/11/06 12:04:01;;;;;;;;;;;7.10;99.90;;;;;;5063434;28;19987;-67
2022/11/06 12:06:28;;;;;;;;;;;7.20;99.90;;;;;;5061979;28;19921;-68
2022/11/06 12:08:55;;;;;;;;;;;7.20;99.90;;;;;;5062788;28;19920;-70
2022/11/06 12:11:23;;;;;;;;;;;7.30;99.90;;;;;;5067158;28;20267;-68
2022/11/06 12:16:51;;;;;;;;;;;7.30;99.90;;;;;;5077641;28;19917;-68
2022/11/06 12:19:20;;;;;;;;;;;7.40;99.90;;;;;;5085130;28;19929;-68
2022/11/06 12:21:51;;;;;;;;;;;7.50;99.90;;;;;;5079386;28;19991;-67
2022/11/06 12:24:19;;;;;;;;;;;7.60;99.90;;;;;;5069272;28;19948;-67
2022/11/06 12:26:49;;;;;;;;;;;7.70;99.90;;;;;;5067760;28;19960;-67
2022/11/06 12:29:18;;;;;;;;;;;7.80;99.90;;;;;;5084166;28;19951;-67
2022/11/06 12:31:47;;;;;;;;;;;7.90;99.90;;;;;;5087953;28;19920;-70
2022/11/06 12:34:20;;;;;;;;;;;8.00;99.90;;;;;;5087108;28;20184;-67
2022/11/06 12:36:58;;;;;;;;;;;8.10;99.90;;;;;;5058750;28;20288;-69
2022/11/06 12:39:28;;;;;;;;;;;8.30;99.90;;;;;;5058607;28;20179;-68
2022/11/06 12:41:54;;;;;;;;;;;8.50;99.90;;;;;;5059087;28;19921;-68
2022/11/06 12:44:21;;;;;;;;;;;8.60;99.90;;;;;;5058531;28;19985;-68
2022/11/06 12:46:54;;;;;;;;;;;8.70;99.90;;;;;;5066163;28;19992;-68
2022/11/06 12:49:36;;;;;;;;;;;8.80;99.90;;;;;;5059642;28;19985;-67
2022/11/06 12:52:08;;;;;;;;;;;8.70;99.90;;;;;;5068025;28;19924;-68
2022/11/06 12:54:41;;;;;;;;;;;8.60;99.90;;;;;;5066562;28;20181;-67
2022/11/06 12:57:13;;;;;;;;;;;8.60;99.90;;;;;;5066922;28;19984;-68
2022/11/06 12:59:47;;;;;;;;;;;8.50;99.90;;;;;;5053437;28;20173;-68
2022/11/06 13:02:24;;;;;;;;;;;8.50;99.90;;;;;;5047168;28;19984;-68
2022/11/06 13:04:54;;;;;;;;;;;8.30;99.90;;;;;;5060829;28;20267;-67
2022/11/06 13:07:30;;;;;;;;;;;8.30;99.90;;;;;;5071554;28;19964;-68
2022/11/06 13:10:02;;;;;;;;;;;8.20;99.90;;;;;;5059170;28;19964;-68
2022/11/06 13:12:33;;;;;;;;;;;8.20;99.90;;;;;;5046609;28;20180;-67
2022/11/06 13:15:08;;;;;;;;;;;8.20;99.90;;;;;;5058209;28;19992;-68
2022/11/06 13:17:46;;;;;;;;;;;8.10;99.90;;;;;;5065657;28;19952;-67
2022/11/06 13:20:16;;;;;;;;;;;8.00;99.90;;;;;;5072737;28;19920;-68
2022/11/06 13:22:49;;;;;;;;;;;7.90;99.90;;;;;;5082223;28;19992;-69
2022/11/06 13:25:18;;;;;;;;;;;7.90;99.90;;;;;;5081336;28;19948;-68
2022/11/06 13:27:48;;;;;;;;;;;7.90;99.90;;;;;;5065942;28;20267;-69
2022/11/06 13:30:16;;;;;;;;;;;7.80;99.90;;;;;;5065168;28;20148;-67
2022/11/06 13:32:45;;;;;;;;;;;7.70;99.90;;;;;;5060371;28;19983;-68
2022/11/06 13:35:13;;;;;;;;;;;7.70;99.90;;;;;;5072163;28;20171;-68
2022/11/06 13:37:41;;;;;;;;;;;7.70;99.90;;;;;;5067557;28;20232;-67
2022/11/06 13:40:17;;;;;;;;;;;7.70;99.90;;;;;;5071532;28;19980;-68
2022/11/06 13:42:48;;;;;;;;;;;7.70;99.90;;;;;;5061664;28;19956;-68
2022/11/06 13:45:15;;;;;;;;;;;7.80;99.90;;;;;;5062270;28;20008;-67
2022/11/06 13:47:49;;;;;;;;;;;7.80;99.90;;;;;;5059538;28;19992;-68
2022/11/06 13:50:21;;;;;;;;;;;7.80;99.90;;;;;;5061078;28;19983;-68
2022/11/06 13:52:50;;;;;;;;;;;7.80;99.90;;;;;;5065127;28;19984;-68
2022/11/06 13:55:23;;;;;;;;;;;7.80;99.90;;;;;;5053507;28;20255;-67
2022/11/06 13:58:19;;;;;;;;;;;7.80;99.90;;;;;;5061846;28;19955;-68
2022/11/06 14:00:54;;;;;;;;;;;7.80;99.90;;;;;;5012176;28;19996;-68
2022/11/06 14:03:32;;;;;;;;;;;7.70;99.90;;;;;;5054737;28;19952;-67
2022/11/06 14:06:01;;;;;;;;;;;7.60;99.90;;;;;;5067656;28;19983;-68
2022/11/06 14:08:29;;;;;;;;;;;7.60;99.90;;;;;;5070239;28;19959;-68
2022/11/06 14:10:58;;;;;;;;;;;7.60;99.90;;;;;;5056073;28;19955;-68
2022/11/06 14:13:27;;;;;;;;;;;7.60;99.90;;;;;;5049734;28;19984;-68
2022/11/06 14:16:01;;;;;;;;;;;7.60;99.90;;;;;;5044769;28;19988;-68
2022/11/06 14:18:40;;;;;;;;;;;7.60;99.90;;;;;;5044544;28;19928;-67
2022/11/06 14:21:27;;;;;;;;;;;7.60;99.90;;;;;;5068659;28;20204;-68
2022/11/06 14:23:54;;;;;;;;;;;7.50;99.90;;;;;;5045043;28;20247;-67
2022/11/06 14:26:39;;;;;;;;;;;7.50;99.90;;;;;;5063407;28;20208;-68
2022/11/06 14:29:24;;;;;;;;;;;7.50;99.90;;;;;;5045037;28;20012;-68
2022/11/06 14:32:00;;;;;;;;;;;7.50;99.90;;;;;;5045823;28;20000;-69
2022/11/06 14:34:27;;;;;;;;;;;7.50;99.90;;;;;;5058233;28;19984;-69
2022/11/06 14:36:54;;;;;;;;;;;7.50;99.90;;;;;;5075712;28;19987;-68
2022/11/06 14:39:46;;;;;;;;;;;7.50;99.90;;;;;;5082603;28;19992;-68
2022/11/06 14:42:14;;;;;;;;;;;7.60;99.90;;;;;;5064668;28;19992;-68
2022/11/06 14:44:49;;;;;;;;;;;7.60;99.90;;;;;;5055348;28;19959;-68
2022/11/06 14:47:34;;;;;;;;;;;7.60;99.90;;;;;;5057380;28;20238;-68
2022/11/06 14:50:03;;;;;;;;;;;7.60;99.90;;;;;;5055994;28;19921;-68
2022/11/06 14:52:39;;;;;;;;;;;7.60;99.90;;;;;;5063014;28;19948;-68
2022/11/06 14:55:06;;;;;;;;;;;7.50;99.90;;;;;;5046822;28;20148;-68
2022/11/06 14:57:37;;;;;;;;;;;7.50;99.90;;;;;;5061822;28;19928;-68
2022/11/06 15:00:05;;;;;;;;;;;7.50;99.90;;;;;;5064481;28;20271;-68
2022/11/06 15:02:34;;;;;;;;;;;7.50;99.90;;;;;;5064599;28;19983;-68
2022/11/06 15:05:16;;;;;;;;;;;7.50;99.90;;;;;;5061166;28;19984;-68
2022/11/06 15:07:56;;;;;;;;;;;7.40;99.90;;;;;;5069577;28;20152;-67
2022/11/06 15:11:00;;;;;;;;;;;7.40;99.90;;;;;;5061566;28;19988;-68
2022/11/06 15:13:33;;;;;;;;;;;7.30;99.90;;;;;;5058338;28;20236;-68
2022/11/06 15:16:06;;;;;;;;;;;7.30;99.90;;;;;;5060870;28;19952;-67
2022/11/06 15:18:35;;;;;;;;;;;7.30;99.90;;;;;;5063051;28;20260;-68
2022/11/06 15:21:03;;;;;;;;;;;7.30;99.90;;;;;;5069519;28;19987;-69
2022/11/06 15:23:32;;;;;;;;;;;7.30;99.90;;;;;;5066392;28;19988;-69
2022/11/06 15:26:04;;;;;;;;;;;7.20;99.90;;;;;;5063255;28;19952;-68
2022/11/06 15:28:34;;;;;;;;;;;7.20;99.90;;;;;;5064135;28;19984;-68
2022/11/06 15:31:03;;;;;;;;;;;7.20;99.90;;;;;;5053739;28;19984;-68
2022/11/06 15:33:32;;;;;;;;;;;7.20;99.90;;;;;;5048219;28;19952;-67
2022/11/06 15:36:03;;;;;;;;;;;7.20;99.90;;;;;;5065730;28;19983;-68
2022/11/06 15:38:39;;;;;;;;;;;7.20;99.90;;;;;;5081812;28;20166;-68
2022/11/06 15:41:06;;;;;;;;;;;7.20;99.90;;;;;;5080971;28;21375;-68
2022/11/06 15:43:36;;;;;;;;;;;7.10;99.90;;;;;;5063540;28;19928;-68
2022/11/06 15:46:07;;;;;;;;;;;7.10;99.90;;;;;;5043038;28;19921;-68
2022/11/06 15:48:34;;;;;;;;;;;7.10;99.90;;;;;;5042909;28;20228;-68
2022/11/06 15:51:01;;;;;;;;;;;7.10;99.90;;;;;;5066198;28;19948;-68
2022/11/06 15:53:28;;;;;;;;;;;7.10;99.90;;;;;;5081071;28;19920;-68
2022/11/06 15:55:58;;;;;;;;;;;7.00;99.90;;;;;;5060069;28;19981;-69
2022/11/06 15:58:27;;;;;;;;;;;7.00;99.90;;;;;;5046021;28;19980;-68
2022/11/06 16:00:55;;;;;;;;;;;7.00;99.90;;;;;;5043685;28;19925;-68
2022/11/06 16:03:23;;;;;;;;;;;7.00;99.90;;;;;;5043811;28;19988;-68